sensor_id;sensor_type;location;lat;lon;timestamp;P1;durP1;ratioP1;P2;durP2;ratioP2
9117;SDS011;4594;50.994;7.126;2022-08-16T00:01:00;2.13;;;2.03;;
9117;SDS011;4594;50.994;7.126;2022-08-16T00:03:26;2.70;;;2.50;;
9117;SDS011;4594;50.994;7.126;2022-08-16T00:05:51;2.57;;;2.47;;
9117;SDS011;4594;50.994;7.126;2022-08-16T00:08:18;3.00;;;2.13;;
9117;SDS011;4594;50.994;7.126;2022-08-16T00:10:44;4.07;;;2.13;;
9117;SDS011;4594;50.994;7.126;2022-08-16T00:13:11;2.20;;;2.10;;
9117;SDS011;4594;50.994;7.126;2022-08-16T00:15:41;2.87;;;2.40;;
9117;SDS011;4594;50.994;7.126;2022-08-16T00:18:11;2.73;;;2.50;;
9117;SDS011;4594;50.994;7.126;2022-08-16T00:20:40;2.40;;;2.20;;
9117;SDS011;4594;50.994;7.126;2022-08-16T00:23:09;2.23;;;2.13;;
9117;SDS011;4594;50.994;7.126;2022-08-16T00:25:36;2.80;;;2.60;;
9117;SDS011;4594;50.994;7.126;2022-08-16T00:28:03;2.43;;;2.23;;
9117;SDS011;4594;50.994;7.126;2022-08-16T00:30:31;2.63;;;2.40;;
9117;SDS011;4594;50.994;7.126;2022-08-16T00:32:58;2.90;;;2.60;;
9117;SDS011;4594;50.994;7.126;2022-08-16T00:35:26;2.20;;;2.10;;
9117;SDS011;4594;50.994;7.126;2022-08-16T00:37:58;2.60;;;2.40;;
9117;SDS011;4594;50.994;7.126;2022-08-16T00:40:37;2.50;;;2.30;;
9117;SDS011;4594;50.994;7.126;2022-08-16T00:43:15;2.40;;;2.30;;
9117;SDS011;4594;50.994;7.126;2022-08-16T00:45:53;2.50;;;2.30;;
9117;SDS011;4594;50.994;7.126;2022-08-16T00:48:47;2.50;;;2.30;;
9117;SDS011;4594;50.994;7.126;2022-08-16T00:51:16;2.17;;;2.10;;
9117;SDS011;4594;50.994;7.126;2022-08-16T00:53:46;2.90;;;2.60;;
9117;SDS011;4594;50.994;7.126;2022-08-16T00:56:15;2.37;;;2.27;;
9117;SDS011;4594;50.994;7.126;2022-08-16T00:58:47;2.47;;;2.37;;
9117;SDS011;4594;50.994;7.126;2022-08-16T01:01:14;2.30;;;2.10;;
9117;SDS011;4594;50.994;7.126;2022-08-16T01:03:43;2.47;;;2.30;;
9117;SDS011;4594;50.994;7.126;2022-08-16T01:06:15;6.97;;;2.40;;
9117;SDS011;4594;50.994;7.126;2022-08-16T01:08:43;2.00;;;1.90;;
9117;SDS011;4594;50.994;7.126;2022-08-16T01:11:15;2.53;;;2.37;;
9117;SDS011;4594;50.994;7.126;2022-08-16T01:13:42;2.47;;;2.30;;
9117;SDS011;4594;50.994;7.126;2022-08-16T01:16:15;2.50;;;2.40;;
9117;SDS011;4594;50.994;7.126;2022-08-16T01:18:46;2.33;;;2.23;;
9117;SDS011;4594;50.994;7.126;2022-08-16T01:21:22;2.60;;;2.07;;
9117;SDS011;4594;50.994;7.126;2022-08-16T01:26:45;3.83;;;2.67;;
9117;SDS011;4594;50.994;7.126;2022-08-16T01:29:15;2.50;;;2.30;;
9117;SDS011;4594;50.994;7.126;2022-08-16T01:31:49;2.13;;;2.03;;
9117;SDS011;4594;50.994;7.126;2022-08-16T01:34:15;2.20;;;2.10;;
9117;SDS011;4594;50.994;7.126;2022-08-16T01:36:43;2.50;;;2.30;;
9117;SDS011;4594;50.994;7.126;2022-08-16T01:39:11;2.10;;;2.00;;
9117;SDS011;4594;50.994;7.126;2022-08-16T01:41:42;2.60;;;2.33;;
9117;SDS011;4594;50.994;7.126;2022-08-16T01:44:10;2.10;;;2.00;;
9117;SDS011;4594;50.994;7.126;2022-08-16T01:46:45;1.87;;;1.67;;
9117;SDS011;4594;50.994;7.126;2022-08-16T01:49:21;2.20;;;2.10;;
9117;SDS011;4594;50.994;7.126;2022-08-16T01:51:57;2.00;;;1.90;;
9117;SDS011;4594;50.994;7.126;2022-08-16T01:54:28;2.33;;;2.10;;
9117;SDS011;4594;50.994;7.126;2022-08-16T01:56:54;2.50;;;2.30;;
9117;SDS011;4594;50.994;7.126;2022-08-16T01:59:21;3.13;;;2.33;;
9117;SDS011;4594;50.994;7.126;2022-08-16T02:01:49;2.10;;;2.00;;
9117;SDS011;4594;50.994;7.126;2022-08-16T02:04:17;2.20;;;2.00;;
9117;SDS011;4594;50.994;7.126;2022-08-16T02:06:46;2.40;;;2.30;;
9117;SDS011;4594;50.994;7.126;2022-08-16T02:09:12;3.03;;;2.10;;
9117;SDS011;4594;50.994;7.126;2022-08-16T02:11:41;2.40;;;2.30;;
9117;SDS011;4594;50.994;7.126;2022-08-16T02:14:13;4.80;;;2.10;;
9117;SDS011;4594;50.994;7.126;2022-08-16T02:16:40;2.20;;;2.10;;
9117;SDS011;4594;50.994;7.126;2022-08-16T02:19:08;2.40;;;2.27;;
9117;SDS011;4594;50.994;7.126;2022-08-16T02:21:36;2.70;;;2.50;;
9117;SDS011;4594;50.994;7.126;2022-08-16T02:24:02;2.50;;;2.30;;
9117;SDS011;4594;50.994;7.126;2022-08-16T02:26:29;2.33;;;2.23;;
9117;SDS011;4594;50.994;7.126;2022-08-16T02:28:54;3.63;;;2.20;;
9117;SDS011;4594;50.994;7.126;2022-08-16T02:31:21;2.10;;;2.00;;
9117;SDS011;4594;50.994;7.126;2022-08-16T02:33:47;4.20;;;2.20;;
9117;SDS011;4594;50.994;7.126;2022-08-16T02:36:13;2.20;;;2.10;;
9117;SDS011;4594;50.994;7.126;2022-08-16T02:38:40;2.10;;;2.00;;
9117;SDS011;4594;50.994;7.126;2022-08-16T02:41:06;3.67;;;2.10;;
9117;SDS011;4594;50.994;7.126;2022-08-16T02:43:34;2.00;;;1.90;;
9117;SDS011;4594;50.994;7.126;2022-08-16T02:46:01;2.13;;;2.00;;
9117;SDS011;4594;50.994;7.126;2022-08-16T02:48:29;2.90;;;2.53;;
9117;SDS011;4594;50.994;7.126;2022-08-16T02:50:56;2.23;;;2.13;;
9117;SDS011;4594;50.994;7.126;2022-08-16T02:53:24;2.17;;;1.97;;
9117;SDS011;4594;50.994;7.126;2022-08-16T02:55:50;1.80;;;1.80;;
9117;SDS011;4594;50.994;7.126;2022-08-16T02:58:17;2.37;;;2.17;;
9117;SDS011;4594;50.994;7.126;2022-08-16T03:00:45;3.50;;;2.13;;
9117;SDS011;4594;50.994;7.126;2022-08-16T03:03:11;2.90;;;2.60;;
9117;SDS011;4594;50.994;7.126;2022-08-16T03:05:37;1.90;;;1.80;;
9117;SDS011;4594;50.994;7.126;2022-08-16T03:08:02;2.20;;;2.20;;
9117;SDS011;4594;50.994;7.126;2022-08-16T03:10:28;2.40;;;2.30;;
9117;SDS011;4594;50.994;7.126;2022-08-16T03:12:54;2.80;;;2.60;;
9117;SDS011;4594;50.994;7.126;2022-08-16T03:15:20;2.40;;;2.30;;
9117;SDS011;4594;50.994;7.126;2022-08-16T03:17:46;2.33;;;2.23;;
9117;SDS011;4594;50.994;7.126;2022-08-16T03:20:13;2.20;;;2.10;;
9117;SDS011;4594;50.994;7.126;2022-08-16T03:22:40;2.10;;;2.10;;
9117;SDS011;4594;50.994;7.126;2022-08-16T03:25:08;2.50;;;2.40;;
9117;SDS011;4594;50.994;7.126;2022-08-16T03:27:37;2.70;;;2.50;;
9117;SDS011;4594;50.994;7.126;2022-08-16T03:30:06;2.37;;;2.27;;
9117;SDS011;4594;50.994;7.126;2022-08-16T03:32:37;2.50;;;2.40;;
9117;SDS011;4594;50.994;7.126;2022-08-16T03:35:03;2.83;;;2.63;;
9117;SDS011;4594;50.994;7.126;2022-08-16T03:37:30;2.63;;;2.47;;
9117;SDS011;4594;50.994;7.126;2022-08-16T03:39:56;2.53;;;2.33;;
9117;SDS011;4594;50.994;7.126;2022-08-16T03:42:21;2.60;;;2.40;;
9117;SDS011;4594;50.994;7.126;2022-08-16T03:44:47;2.60;;;2.40;;
9117;SDS011;4594;50.994;7.126;2022-08-16T03:47:13;2.83;;;2.40;;
9117;SDS011;4594;50.994;7.126;2022-08-16T03:49:39;2.80;;;2.60;;
9117;SDS011;4594;50.994;7.126;2022-08-16T03:52:05;3.93;;;2.60;;
9117;SDS011;4594;50.994;7.126;2022-08-16T03:54:32;2.50;;;2.40;;
9117;SDS011;4594;50.994;7.126;2022-08-16T03:56:59;2.73;;;2.13;;
9117;SDS011;4594;50.994;7.126;2022-08-16T03:59:25;2.20;;;2.20;;
9117;SDS011;4594;50.994;7.126;2022-08-16T04:01:51;3.20;;;2.40;;
9117;SDS011;4594;50.994;7.126;2022-08-16T04:04:17;2.40;;;2.30;;
9117;SDS011;4594;50.994;7.126;2022-08-16T04:06:43;2.10;;;2.10;;
9117;SDS011;4594;50.994;7.126;2022-08-16T04:09:08;2.30;;;2.20;;
9117;SDS011;4594;50.994;7.126;2022-08-16T04:11:36;3.73;;;2.27;;
9117;SDS011;4594;50.994;7.126;2022-08-16T04:14:02;3.00;;;2.70;;
9117;SDS011;4594;50.994;7.126;2022-08-16T04:16:28;2.30;;;2.20;;
9117;SDS011;4594;50.994;7.126;2022-08-16T04:18:56;2.40;;;2.30;;
9117;SDS011;4594;50.994;7.126;2022-08-16T04:21:22;2.47;;;2.37;;
9117;SDS011;4594;50.994;7.126;2022-08-16T04:23:48;2.63;;;2.43;;
9117;SDS011;4594;50.994;7.126;2022-08-16T04:26:13;2.63;;;2.53;;
9117;SDS011;4594;50.994;7.126;2022-08-16T04:28:39;2.07;;;2.07;;
9117;SDS011;4594;50.994;7.126;2022-08-16T04:31:05;2.90;;;2.70;;
9117;SDS011;4594;50.994;7.126;2022-08-16T04:33:30;2.60;;;2.40;;
9117;SDS011;4594;50.994;7.126;2022-08-16T04:35:56;2.23;;;2.13;;
9117;SDS011;4594;50.994;7.126;2022-08-16T04:38:22;2.73;;;2.57;;
9117;SDS011;4594;50.994;7.126;2022-08-16T04:40:49;2.27;;;2.17;;
9117;SDS011;4594;50.994;7.126;2022-08-16T04:43:15;2.80;;;2.57;;
9117;SDS011;4594;50.994;7.126;2022-08-16T04:45:41;6.73;;;2.80;;
9117;SDS011;4594;50.994;7.126;2022-08-16T04:48:07;2.63;;;2.40;;
9117;SDS011;4594;50.994;7.126;2022-08-16T04:50:34;2.60;;;2.40;;
9117;SDS011;4594;50.994;7.126;2022-08-16T04:53:00;2.70;;;2.50;;
9117;SDS011;4594;50.994;7.126;2022-08-16T04:55:26;2.40;;;2.30;;
9117;SDS011;4594;50.994;7.126;2022-08-16T04:57:55;2.60;;;2.40;;
9117;SDS011;4594;50.994;7.126;2022-08-16T05:00:25;2.77;;;2.57;;
9117;SDS011;4594;50.994;7.126;2022-08-16T05:02:58;2.23;;;2.20;;
9117;SDS011;4594;50.994;7.126;2022-08-16T05:05:31;2.90;;;2.60;;
9117;SDS011;4594;50.994;7.126;2022-08-16T05:07:57;2.63;;;2.40;;
9117;SDS011;4594;50.994;7.126;2022-08-16T05:10:24;4.53;;;2.67;;
9117;SDS011;4594;50.994;7.126;2022-08-16T05:12:50;2.57;;;2.47;;
9117;SDS011;4594;50.994;7.126;2022-08-16T05:15:16;2.43;;;2.23;;
9117;SDS011;4594;50.994;7.126;2022-08-16T05:17:42;2.80;;;2.60;;
9117;SDS011;4594;50.994;7.126;2022-08-16T05:20:08;3.33;;;2.80;;
9117;SDS011;4594;50.994;7.126;2022-08-16T05:22:35;2.63;;;2.50;;
9117;SDS011;4594;50.994;7.126;2022-08-16T05:25:03;2.87;;;2.50;;
9117;SDS011;4594;50.994;7.126;2022-08-16T05:27:32;2.80;;;2.67;;
9117;SDS011;4594;50.994;7.126;2022-08-16T05:29:58;2.53;;;2.37;;
9117;SDS011;4594;50.994;7.126;2022-08-16T05:32:24;6.73;;;2.43;;
9117;SDS011;4594;50.994;7.126;2022-08-16T05:34:49;3.50;;;2.57;;
9117;SDS011;4594;50.994;7.126;2022-08-16T05:37:15;2.63;;;2.43;;
9117;SDS011;4594;50.994;7.126;2022-08-16T05:39:41;2.63;;;2.50;;
9117;SDS011;4594;50.994;7.126;2022-08-16T05:42:06;2.63;;;2.43;;
9117;SDS011;4594;50.994;7.126;2022-08-16T05:44:32;2.57;;;2.40;;
9117;SDS011;4594;50.994;7.126;2022-08-16T05:46:59;3.13;;;2.67;;
9117;SDS011;4594;50.994;7.126;2022-08-16T05:49:26;2.70;;;2.50;;
9117;SDS011;4594;50.994;7.126;2022-08-16T05:51:54;2.27;;;2.17;;
9117;SDS011;4594;50.994;7.126;2022-08-16T05:54:21;2.23;;;2.23;;
9117;SDS011;4594;50.994;7.126;2022-08-16T05:56:47;2.30;;;2.10;;
9117;SDS011;4594;50.994;7.126;2022-08-16T05:59:13;2.03;;;2.00;;
9117;SDS011;4594;50.994;7.126;2022-08-16T06:01:42;2.27;;;2.20;;
9117;SDS011;4594;50.994;7.126;2022-08-16T06:04:14;2.30;;;2.20;;
9117;SDS011;4594;50.994;7.126;2022-08-16T06:06:42;2.20;;;2.20;;
9117;SDS011;4594;50.994;7.126;2022-08-16T06:09:10;2.07;;;1.90;;
9117;SDS011;4594;50.994;7.126;2022-08-16T06:11:38;2.10;;;2.00;;
9117;SDS011;4594;50.994;7.126;2022-08-16T06:14:04;2.10;;;1.97;;
9117;SDS011;4594;50.994;7.126;2022-08-16T06:16:31;1.93;;;1.80;;
9117;SDS011;4594;50.994;7.126;2022-08-16T06:18:57;1.97;;;1.80;;
9117;SDS011;4594;50.994;7.126;2022-08-16T06:21:23;2.23;;;2.13;;
9117;SDS011;4594;50.994;7.126;2022-08-16T06:23:49;1.80;;;1.70;;
9117;SDS011;4594;50.994;7.126;2022-08-16T06:26:15;1.70;;;1.60;;
9117;SDS011;4594;50.994;7.126;2022-08-16T06:28:41;2.20;;;2.10;;
9117;SDS011;4594;50.994;7.126;2022-08-16T06:31:10;4.03;;;2.10;;
9117;SDS011;4594;50.994;7.126;2022-08-16T06:33:38;2.10;;;1.90;;
9117;SDS011;4594;50.994;7.126;2022-08-16T06:36:04;3.97;;;2.00;;
9117;SDS011;4594;50.994;7.126;2022-08-16T06:38:33;2.10;;;2.10;;
9117;SDS011;4594;50.994;7.126;2022-08-16T06:41:01;2.30;;;2.20;;
9117;SDS011;4594;50.994;7.126;2022-08-16T06:43:29;1.80;;;1.70;;
9117;SDS011;4594;50.994;7.126;2022-08-16T06:45:56;1.90;;;1.73;;
9117;SDS011;4594;50.994;7.126;2022-08-16T06:48:21;2.50;;;1.93;;
9117;SDS011;4594;50.994;7.126;2022-08-16T06:50:47;1.87;;;1.77;;
9117;SDS011;4594;50.994;7.126;2022-08-16T06:53:16;1.77;;;1.67;;
9117;SDS011;4594;50.994;7.126;2022-08-16T06:55:42;2.10;;;2.00;;
9117;SDS011;4594;50.994;7.126;2022-08-16T06:58:08;1.93;;;1.70;;
9117;SDS011;4594;50.994;7.126;2022-08-16T07:00:35;1.90;;;1.77;;
9117;SDS011;4594;50.994;7.126;2022-08-16T07:03:02;1.90;;;1.80;;
9117;SDS011;4594;50.994;7.126;2022-08-16T07:05:30;2.80;;;1.40;;
9117;SDS011;4594;50.994;7.126;2022-08-16T07:07:57;1.47;;;1.37;;
9117;SDS011;4594;50.994;7.126;2022-08-16T07:10:23;1.63;;;1.47;;
9117;SDS011;4594;50.994;7.126;2022-08-16T07:12:50;2.33;;;1.57;;
9117;SDS011;4594;50.994;7.126;2022-08-16T07:15:19;2.23;;;1.40;;
9117;SDS011;4594;50.994;7.126;2022-08-16T07:17:45;1.20;;;1.20;;
9117;SDS011;4594;50.994;7.126;2022-08-16T07:20:14;3.90;;;1.70;;
9117;SDS011;4594;50.994;7.126;2022-08-16T07:22:43;2.00;;;1.43;;
9117;SDS011;4594;50.994;7.126;2022-08-16T07:25:10;1.70;;;1.60;;
9117;SDS011;4594;50.994;7.126;2022-08-16T07:27:37;1.57;;;1.47;;
9117;SDS011;4594;50.994;7.126;2022-08-16T07:30:09;3.93;;;1.30;;
9117;SDS011;4594;50.994;7.126;2022-08-16T07:32:38;1.40;;;1.30;;
9117;SDS011;4594;50.994;7.126;2022-08-16T07:35:04;1.03;;;1.03;;
9117;SDS011;4594;50.994;7.126;2022-08-16T07:37:30;3.53;;;1.40;;
9117;SDS011;4594;50.994;7.126;2022-08-16T07:39:56;0.97;;;0.97;;
9117;SDS011;4594;50.994;7.126;2022-08-16T07:42:22;2.07;;;1.53;;
9117;SDS011;4594;50.994;7.126;2022-08-16T07:44:48;3.93;;;1.37;;
9117;SDS011;4594;50.994;7.126;2022-08-16T07:47:14;1.20;;;1.20;;
9117;SDS011;4594;50.994;7.126;2022-08-16T07:49:40;1.20;;;1.20;;
9117;SDS011;4594;50.994;7.126;2022-08-16T07:52:05;0.90;;;0.90;;
9117;SDS011;4594;50.994;7.126;2022-08-16T07:54:31;1.37;;;1.30;;
9117;SDS011;4594;50.994;7.126;2022-08-16T07:56:57;3.53;;;1.57;;
9117;SDS011;4594;50.994;7.126;2022-08-16T07:59:23;1.30;;;1.20;;
9117;SDS011;4594;50.994;7.126;2022-08-16T08:01:50;1.80;;;1.30;;
9117;SDS011;4594;50.994;7.126;2022-08-16T08:04:17;1.20;;;1.20;;
9117;SDS011;4594;50.994;7.126;2022-08-16T08:06:43;1.47;;;1.47;;
9117;SDS011;4594;50.994;7.126;2022-08-16T08:09:10;1.10;;;1.10;;
9117;SDS011;4594;50.994;7.126;2022-08-16T08:11:36;1.03;;;1.03;;
9117;SDS011;4594;50.994;7.126;2022-08-16T08:14:02;1.13;;;1.13;;
9117;SDS011;4594;50.994;7.126;2022-08-16T08:16:28;3.23;;;1.47;;
9117;SDS011;4594;50.994;7.126;2022-08-16T08:18:55;1.27;;;1.17;;
9117;SDS011;4594;50.994;7.126;2022-08-16T08:21:22;3.33;;;1.60;;
9117;SDS011;4594;50.994;7.126;2022-08-16T08:23:49;2.57;;;1.20;;
9117;SDS011;4594;50.994;7.126;2022-08-16T08:26:16;1.40;;;1.17;;
9117;SDS011;4594;50.994;7.126;2022-08-16T08:28:43;1.30;;;1.13;;
9117;SDS011;4594;50.994;7.126;2022-08-16T08:31:10;1.42;;;1.33;;
9117;SDS011;4594;50.994;7.126;2022-08-16T08:33:37;2.00;;;1.70;;
9117;SDS011;4594;50.994;7.126;2022-08-16T08:36:04;1.48;;;1.30;;
9117;SDS011;4594;50.994;7.126;2022-08-16T08:38:32;1.92;;;1.73;;
9117;SDS011;4594;50.994;7.126;2022-08-16T08:40:59;1.23;;;1.13;;
9117;SDS011;4594;50.994;7.126;2022-08-16T08:43:25;2.65;;;1.30;;
9117;SDS011;4594;50.994;7.126;2022-08-16T08:45:53;1.40;;;1.30;;
9117;SDS011;4594;50.994;7.126;2022-08-16T08:48:19;1.33;;;1.10;;
9117;SDS011;4594;50.994;7.126;2022-08-16T08:50:46;3.65;;;0.93;;
9117;SDS011;4594;50.994;7.126;2022-08-16T08:53:13;1.50;;;1.27;;
9117;SDS011;4594;50.994;7.126;2022-08-16T08:55:40;2.00;;;1.58;;
9117;SDS011;4594;50.994;7.126;2022-08-16T08:58:06;1.42;;;1.33;;
9117;SDS011;4594;50.994;7.126;2022-08-16T09:00:33;1.38;;;1.35;;
9117;SDS011;4594;50.994;7.126;2022-08-16T09:03:02;1.40;;;1.40;;
9117;SDS011;4594;50.994;7.126;2022-08-16T09:05:28;3.20;;;1.45;;
9117;SDS011;4594;50.994;7.126;2022-08-16T09:07:53;1.20;;;1.13;;
9117;SDS011;4594;50.994;7.126;2022-08-16T09:10:20;1.35;;;1.35;;
9117;SDS011;4594;50.994;7.126;2022-08-16T09:12:46;1.73;;;1.55;;
9117;SDS011;4594;50.994;7.126;2022-08-16T09:15:13;1.02;;;1.02;;
9117;SDS011;4594;50.994;7.126;2022-08-16T09:17:41;4.43;;;1.30;;
9117;SDS011;4594;50.994;7.126;2022-08-16T09:20:09;2.55;;;1.58;;
9117;SDS011;4594;50.994;7.126;2022-08-16T09:22:38;2.25;;;1.52;;
9117;SDS011;4594;50.994;7.126;2022-08-16T09:25:06;1.23;;;1.23;;
9117;SDS011;4594;50.994;7.126;2022-08-16T09:27:33;1.20;;;1.10;;
9117;SDS011;4594;50.994;7.126;2022-08-16T09:29:59;1.20;;;1.20;;
9117;SDS011;4594;50.994;7.126;2022-08-16T09:32:24;1.13;;;1.13;;
9117;SDS011;4594;50.994;7.126;2022-08-16T09:34:50;1.63;;;1.25;;
9117;SDS011;4594;50.994;7.126;2022-08-16T09:37:16;2.10;;;1.05;;
9117;SDS011;4594;50.994;7.126;2022-08-16T09:39:42;5.45;;;1.63;;
9117;SDS011;4594;50.994;7.126;2022-08-16T09:42:08;1.30;;;1.30;;
9117;SDS011;4594;50.994;7.126;2022-08-16T09:44:35;2.10;;;1.30;;
9117;SDS011;4594;50.994;7.126;2022-08-16T09:47:01;1.30;;;1.20;;
9117;SDS011;4594;50.994;7.126;2022-08-16T09:49:28;1.30;;;1.20;;
9117;SDS011;4594;50.994;7.126;2022-08-16T09:51:54;1.27;;;1.25;;
9117;SDS011;4594;50.994;7.126;2022-08-16T09:54:20;1.27;;;1.17;;
9117;SDS011;4594;50.994;7.126;2022-08-16T09:56:51;1.63;;;1.17;;
9117;SDS011;4594;50.994;7.126;2022-08-16T09:59:17;1.10;;;1.10;;
9117;SDS011;4594;50.994;7.126;2022-08-16T10:01:43;2.33;;;1.65;;
9117;SDS011;4594;50.994;7.126;2022-08-16T10:04:11;2.03;;;1.25;;
9117;SDS011;4594;50.994;7.126;2022-08-16T10:06:40;1.95;;;1.38;;
9117;SDS011;4594;50.994;7.126;2022-08-16T10:09:10;1.50;;;1.30;;
9117;SDS011;4594;50.994;7.126;2022-08-16T10:11:39;1.45;;;1.35;;
9117;SDS011;4594;50.994;7.126;2022-08-16T10:14:24;1.38;;;1.38;;
9117;SDS011;4594;50.994;7.126;2022-08-16T10:16:56;4.60;;;1.55;;
9117;SDS011;4594;50.994;7.126;2022-08-16T10:19:27;1.50;;;1.50;;
9117;SDS011;4594;50.994;7.126;2022-08-16T10:21:54;1.30;;;1.27;;
9117;SDS011;4594;50.994;7.126;2022-08-16T10:24:20;1.75;;;1.20;;
9117;SDS011;4594;50.994;7.126;2022-08-16T10:26:46;1.45;;;1.35;;
9117;SDS011;4594;50.994;7.126;2022-08-16T10:29:12;1.27;;;1.17;;
9117;SDS011;4594;50.994;7.126;2022-08-16T10:31:39;4.05;;;1.52;;
9117;SDS011;4594;50.994;7.126;2022-08-16T10:34:06;2.90;;;1.50;;
9117;SDS011;4594;50.994;7.126;2022-08-16T10:36:33;1.70;;;1.60;;
9117;SDS011;4594;50.994;7.126;2022-08-16T10:38:58;1.83;;;1.27;;
9117;SDS011;4594;50.994;7.126;2022-08-16T10:41:24;1.65;;;1.40;;
9117;SDS011;4594;50.994;7.126;2022-08-16T10:43:50;3.28;;;1.50;;
9117;SDS011;4594;50.994;7.126;2022-08-16T10:46:16;1.55;;;1.48;;
9117;SDS011;4594;50.994;7.126;2022-08-16T10:48:43;1.40;;;1.30;;
9117;SDS011;4594;50.994;7.126;2022-08-16T10:51:10;1.70;;;1.60;;
9117;SDS011;4594;50.994;7.126;2022-08-16T10:53:37;1.42;;;1.40;;
9117;SDS011;4594;50.994;7.126;2022-08-16T10:56:05;1.90;;;1.70;;
9117;SDS011;4594;50.994;7.126;2022-08-16T10:58:35;1.52;;;1.42;;
9117;SDS011;4594;50.994;7.126;2022-08-16T11:01:02;1.35;;;1.25;;
9117;SDS011;4594;50.994;7.126;2022-08-16T11:03:30;11.48;;;1.70;;
9117;SDS011;4594;50.994;7.126;2022-08-16T11:05:57;1.70;;;1.63;;
9117;SDS011;4594;50.994;7.126;2022-08-16T11:08:24;4.93;;;1.73;;
9117;SDS011;4594;50.994;7.126;2022-08-16T11:10:50;1.30;;;1.30;;
9117;SDS011;4594;50.994;7.126;2022-08-16T11:13:17;3.13;;;1.48;;
9117;SDS011;4594;50.994;7.126;2022-08-16T11:15:47;4.40;;;1.73;;
9117;SDS011;4594;50.994;7.126;2022-08-16T11:18:13;1.50;;;1.40;;
9117;SDS011;4594;50.994;7.126;2022-08-16T11:20:39;1.60;;;1.50;;
9117;SDS011;4594;50.994;7.126;2022-08-16T11:23:08;2.03;;;1.83;;
9117;SDS011;4594;50.994;7.126;2022-08-16T11:25:35;2.10;;;1.70;;
9117;SDS011;4594;50.994;7.126;2022-08-16T11:28:02;4.03;;;1.83;;
9117;SDS011;4594;50.994;7.126;2022-08-16T11:30:30;1.90;;;1.73;;
9117;SDS011;4594;50.994;7.126;2022-08-16T11:32:58;2.03;;;1.90;;
9117;SDS011;4594;50.994;7.126;2022-08-16T11:35:28;3.80;;;2.00;;
9117;SDS011;4594;50.994;7.126;2022-08-16T11:37:59;1.95;;;1.48;;
9117;SDS011;4594;50.994;7.126;2022-08-16T11:40:31;2.08;;;1.60;;
9117;SDS011;4594;50.994;7.126;2022-08-16T11:43:26;1.50;;;1.40;;
9117;SDS011;4594;50.994;7.126;2022-08-16T11:46:00;1.30;;;1.20;;
9117;SDS011;4594;50.994;7.126;2022-08-16T11:48:31;3.67;;;1.73;;
9117;SDS011;4594;50.994;7.126;2022-08-16T11:50:58;1.92;;;1.83;;
9117;SDS011;4594;50.994;7.126;2022-08-16T11:53:25;3.72;;;1.70;;
9117;SDS011;4594;50.994;7.126;2022-08-16T11:55:53;2.93;;;1.80;;
9117;SDS011;4594;50.994;7.126;2022-08-16T11:58:21;1.70;;;1.60;;
9117;SDS011;4594;50.994;7.126;2022-08-16T12:00:50;2.33;;;1.80;;
9117;SDS011;4594;50.994;7.126;2022-08-16T12:03:20;2.93;;;1.90;;
9117;SDS011;4594;50.994;7.126;2022-08-16T12:05:48;4.73;;;1.60;;
9117;SDS011;4594;50.994;7.126;2022-08-16T12:08:14;1.77;;;1.67;;
9117;SDS011;4594;50.994;7.126;2022-08-16T12:10:40;3.33;;;1.97;;
9117;SDS011;4594;50.994;7.126;2022-08-16T12:13:10;4.10;;;1.77;;
9117;SDS011;4594;50.994;7.126;2022-08-16T12:15:37;2.40;;;2.13;;
9117;SDS011;4594;50.994;7.126;2022-08-16T12:18:04;3.97;;;2.00;;
9117;SDS011;4594;50.994;7.126;2022-08-16T12:20:33;2.57;;;1.60;;
9117;SDS011;4594;50.994;7.126;2022-08-16T12:23:03;2.13;;;1.90;;
9117;SDS011;4594;50.994;7.126;2022-08-16T12:25:30;2.80;;;2.53;;
9117;SDS011;4594;50.994;7.126;2022-08-16T12:27:58;3.23;;;1.87;;
9117;SDS011;4594;50.994;7.126;2022-08-16T12:30:26;1.93;;;1.83;;
9117;SDS011;4594;50.994;7.126;2022-08-16T12:32:57;1.90;;;1.70;;
9117;SDS011;4594;50.994;7.126;2022-08-16T12:35:25;5.27;;;2.53;;
9117;SDS011;4594;50.994;7.126;2022-08-16T12:37:54;7.30;;;1.83;;
9117;SDS011;4594;50.994;7.126;2022-08-16T12:40:24;2.77;;;2.00;;
9117;SDS011;4594;50.994;7.126;2022-08-16T12:42:55;3.60;;;1.97;;
9117;SDS011;4594;50.994;7.126;2022-08-16T12:45:24;3.80;;;1.87;;
9117;SDS011;4594;50.994;7.126;2022-08-16T12:47:54;2.40;;;1.90;;
9117;SDS011;4594;50.994;7.126;2022-08-16T12:50:38;4.23;;;2.03;;
9117;SDS011;4594;50.994;7.126;2022-08-16T12:53:04;2.10;;;2.00;;
9117;SDS011;4594;50.994;7.126;2022-08-16T12:55:30;8.47;;;2.03;;
9117;SDS011;4594;50.994;7.126;2022-08-16T12:57:57;5.40;;;2.17;;
9117;SDS011;4594;50.994;7.126;2022-08-16T13:00:24;4.17;;;2.20;;
9117;SDS011;4594;50.994;7.126;2022-08-16T13:02:54;2.47;;;1.97;;
9117;SDS011;4594;50.994;7.126;2022-08-16T13:05:23;3.13;;;2.60;;
9117;SDS011;4594;50.994;7.126;2022-08-16T13:07:50;2.37;;;2.27;;
9117;SDS011;4594;50.994;7.126;2022-08-16T13:10:17;4.67;;;2.23;;
9117;SDS011;4594;50.994;7.126;2022-08-16T13:12:46;2.20;;;2.00;;
9117;SDS011;4594;50.994;7.126;2022-08-16T13:15:17;2.47;;;2.23;;
9117;SDS011;4594;50.994;7.126;2022-08-16T13:17:46;2.43;;;2.20;;
9117;SDS011;4594;50.994;7.126;2022-08-16T13:20:14;2.30;;;2.13;;
9117;SDS011;4594;50.994;7.126;2022-08-16T13:22:48;1.97;;;1.63;;
9117;SDS011;4594;50.994;7.126;2022-08-16T13:25:22;2.27;;;1.93;;
9117;SDS011;4594;50.994;7.126;2022-08-16T13:27:51;2.83;;;2.10;;
9117;SDS011;4594;50.994;7.126;2022-08-16T13:30:19;1.93;;;1.83;;
9117;SDS011;4594;50.994;7.126;2022-08-16T13:32:46;2.27;;;2.07;;
9117;SDS011;4594;50.994;7.126;2022-08-16T13:35:13;4.27;;;2.37;;
9117;SDS011;4594;50.994;7.126;2022-08-16T13:37:39;4.00;;;2.63;;
9117;SDS011;4594;50.994;7.126;2022-08-16T13:40:05;2.77;;;2.20;;
9117;SDS011;4594;50.994;7.126;2022-08-16T13:42:31;2.03;;;1.93;;
9117;SDS011;4594;50.994;7.126;2022-08-16T13:44:57;1.97;;;1.87;;
9117;SDS011;4594;50.994;7.126;2022-08-16T13:47:24;2.37;;;1.90;;
9117;SDS011;4594;50.994;7.126;2022-08-16T13:49:50;5.87;;;2.00;;
9117;SDS011;4594;50.994;7.126;2022-08-16T13:52:16;2.80;;;1.87;;
9117;SDS011;4594;50.994;7.126;2022-08-16T13:54:43;3.13;;;2.50;;
9117;SDS011;4594;50.994;7.126;2022-08-16T13:57:09;2.20;;;2.00;;
9117;SDS011;4594;50.994;7.126;2022-08-16T13:59:35;3.10;;;2.00;;
9117;SDS011;4594;50.994;7.126;2022-08-16T14:02:01;2.20;;;2.10;;
9117;SDS011;4594;50.994;7.126;2022-08-16T14:04:33;2.37;;;2.10;;
9117;SDS011;4594;50.994;7.126;2022-08-16T14:07:03;2.30;;;2.20;;
9117;SDS011;4594;50.994;7.126;2022-08-16T14:09:33;4.33;;;2.10;;
9117;SDS011;4594;50.994;7.126;2022-08-16T14:12:01;2.43;;;2.23;;
9117;SDS011;4594;50.994;7.126;2022-08-16T14:14:31;1.87;;;1.77;;
9117;SDS011;4594;50.994;7.126;2022-08-16T14:16:58;2.10;;;2.00;;
9117;SDS011;4594;50.994;7.126;2022-08-16T14:19:26;2.53;;;2.10;;
9117;SDS011;4594;50.994;7.126;2022-08-16T14:21:53;2.60;;;1.90;;
9117;SDS011;4594;50.994;7.126;2022-08-16T14:24:22;2.00;;;1.90;;
9117;SDS011;4594;50.994;7.126;2022-08-16T14:26:47;2.77;;;2.20;;
9117;SDS011;4594;50.994;7.126;2022-08-16T14:29:14;2.53;;;2.33;;
9117;SDS011;4594;50.994;7.126;2022-08-16T14:31:40;2.00;;;1.90;;
9117;SDS011;4594;50.994;7.126;2022-08-16T14:34:06;2.47;;;2.33;;
9117;SDS011;4594;50.994;7.126;2022-08-16T14:36:33;2.00;;;1.90;;
9117;SDS011;4594;50.994;7.126;2022-08-16T14:38:58;2.10;;;2.00;;
9117;SDS011;4594;50.994;7.126;2022-08-16T14:41:26;2.30;;;2.20;;
9117;SDS011;4594;50.994;7.126;2022-08-16T14:43:53;2.50;;;2.30;;
9117;SDS011;4594;50.994;7.126;2022-08-16T14:46:21;2.30;;;2.10;;
9117;SDS011;4594;50.994;7.126;2022-08-16T14:48:46;2.03;;;1.93;;
9117;SDS011;4594;50.994;7.126;2022-08-16T14:51:12;2.70;;;2.50;;
9117;SDS011;4594;50.994;7.126;2022-08-16T14:53:39;2.27;;;2.07;;
9117;SDS011;4594;50.994;7.126;2022-08-16T14:56:06;2.53;;;2.27;;
9117;SDS011;4594;50.994;7.126;2022-08-16T14:58:32;2.23;;;2.10;;
9117;SDS011;4594;50.994;7.126;2022-08-16T15:00:57;3.03;;;2.47;;
9117;SDS011;4594;50.994;7.126;2022-08-16T15:03:25;2.33;;;2.23;;
9117;SDS011;4594;50.994;7.126;2022-08-16T15:05:52;1.80;;;1.80;;
9117;SDS011;4594;50.994;7.126;2022-08-16T15:08:18;2.67;;;2.03;;
9117;SDS011;4594;50.994;7.126;2022-08-16T15:10:44;2.17;;;2.07;;
9117;SDS011;4594;50.994;7.126;2022-08-16T15:13:10;3.13;;;2.10;;
9117;SDS011;4594;50.994;7.126;2022-08-16T15:15:37;3.33;;;1.97;;
9117;SDS011;4594;50.994;7.126;2022-08-16T15:18:03;4.60;;;2.20;;
9117;SDS011;4594;50.994;7.126;2022-08-16T15:20:31;2.40;;;2.27;;